Terminal Aerodrome Forecast
Issued by NWS Sterling, VA

Home | Current Version | Previous Version | Text Only | Print | Product List | Glossary On
Versions: 1 2 3 4 5 6 7 8 9 10 11 12 13 14 15 16 17 18 19 20 21 22 23 24 25 26 27
000
FTUS41 KLWX 042340
TAFDCA
TAF
KDCA 042340Z 0500/0524 13006KT P6SM BKN060 BKN250
     FM050100 09010G18KT P6SM BKN060
     FM050500 07007KT P6SM SCT015 BKN025
     FM050800 05009G15KT P6SM BKN008 OVC012
     FM051200 06008KT P6SM BKN012 OVC020
     FM051700 09008KT P6SM SCT040=

USA.gov is the U.S. government's official web portal to all federal, state and local government web resources and services.